Sign-in with your pilot id or email, or register

ICAO: ZUUU Name / Country: Chengdu / China
Latitude: 30.5785 Longitude: 103.947
Total Arrivals:
Strict Standards: Non-static method AirportData::getarrflights() should not be called statically, assuming $this from incompatible context in /var/www/customers/vh-7192/web/home/phpvms/core/templates/airport_info.tpl on line 18
1
Total Departures:
Strict Standards: Non-static method AirportData::getdeptflights() should not be called statically, assuming $this from incompatible context in /var/www/customers/vh-7192/web/home/phpvms/core/templates/airport_info.tpl on line 21
1
Latest Arrival: MTA5PM (VTBS-ZUUU) Tibor Berces Latest Departure: MTA5PM (ZUUU-RKSI) Tibor Berces
Metar: ZUUU 270900Z 13003MPS 050V150 9999 FEW010 BKN020 21/19 Q1011 NOSIG
More info

Charts for ZUUU


NOTAM


Warning: file_get_contents(http://api.vateud.net/notams/ZUUU.json): failed to open stream: Redirection limit reached, aborting in /var/www/customers/vh-7192/web/home/phpvms/core/common/NOTAMSData.class.php on line 18

Warning: Invalid argument supplied for foreach() in /var/www/customers/vh-7192/web/home/phpvms/core/common/NOTAMSData.class.php on line 22

Chengdu